createdAt,value
2019-01-21T00:01:01.565Z,57.93
2019-01-21T00:03:29.057Z,55.67
2019-01-21T00:05:56.636Z,53.07
2019-01-21T00:08:24.104Z,47.40
2019-01-21T00:10:51.676Z,48.23
2019-01-21T00:13:19.073Z,50.10
2019-01-21T00:15:46.761Z,49.43
2019-01-21T00:18:14.226Z,51.87
2019-01-21T00:20:41.669Z,48.63
2019-01-21T00:23:09.136Z,51.17
2019-01-21T00:25:36.652Z,55.93
2019-01-21T00:28:04.278Z,60.10
2019-01-21T00:30:31.762Z,56.03
2019-01-21T00:32:59.227Z,54.17
2019-01-21T00:35:26.706Z,54.43
2019-01-21T00:37:54.212Z,56.27
2019-01-21T00:40:22.248Z,56.23
2019-01-21T00:42:49.731Z,57.80
2019-01-21T00:45:17.300Z,59.90
2019-01-21T00:47:44.709Z,58.23
2019-01-21T00:50:12.493Z,60.33
2019-01-21T00:52:40.084Z,59.20
2019-01-21T00:55:08.246Z,59.67
2019-01-21T00:57:35.752Z,62.90
2019-01-21T01:00:05.987Z,59.27
2019-01-21T01:02:33.597Z,61.00
2019-01-21T01:05:01.198Z,57.50
2019-01-21T01:07:28.683Z,53.37
2019-01-21T01:09:56.156Z,60.40
2019-01-21T01:12:23.623Z,56.33
2019-01-21T01:14:51.061Z,54.00
2019-01-21T01:17:18.678Z,58.63
2019-01-21T01:19:46.182Z,57.67
2019-01-21T01:22:13.660Z,59.20
2019-01-21T01:24:41.145Z,58.60
2019-01-21T01:27:08.808Z,60.10
2019-01-21T01:29:36.218Z,57.07
2019-01-21T01:32:03.862Z,58.87
2019-01-21T01:34:31.378Z,60.97
2019-01-21T01:36:58.868Z,57.27
2019-01-21T01:39:26.768Z,59.37
2019-01-21T01:41:54.267Z,61.07
2019-01-21T01:44:21.870Z,61.23
2019-01-21T01:46:49.598Z,63.03
2019-01-21T01:49:17.193Z,58.80
2019-01-21T01:51:44.803Z,62.60
2019-01-21T01:54:12.419Z,62.07
2019-01-21T01:56:39.998Z,68.13
2019-01-21T01:59:08.203Z,68.17
2019-01-21T02:01:35.687Z,66.70
2019-01-21T02:04:03.553Z,64.40
2019-01-21T02:06:31.014Z,71.50
2019-01-21T02:08:58.601Z,67.53
2019-01-21T02:11:26.115Z,65.27
2019-01-21T02:13:54.021Z,68.33
2019-01-21T02:16:21.498Z,68.77
2019-01-21T02:18:49.119Z,63.80
2019-01-21T02:21:17.309Z,57.63
2019-01-21T02:23:49.222Z,58.83
2019-01-21T02:26:21.142Z,57.70
2019-01-21T02:29:05.096Z,53.80
2019-01-21T02:32:15.886Z,57.03
2019-01-21T02:34:57.866Z,53.27
2019-01-21T02:37:48.318Z,54.97
2019-01-21T02:40:58.232Z,58.37
2019-01-21T02:44:00.861Z,58.40
2019-01-21T02:46:42.061Z,60.97
2019-01-21T02:49:57.462Z,55.63
2019-01-21T02:53:19.175Z,55.93
2019-01-21T02:56:31.476Z,52.03
2019-01-21T02:59:47.479Z,49.40
2019-01-21T03:02:57.477Z,43.53
2019-01-21T03:06:02.106Z,46.57
2019-01-21T03:09:02.743Z,45.50
2019-01-21T03:11:48.453Z,47.37
2019-01-21T03:14:40.667Z,42.80
2019-01-21T03:17:59.135Z,43.50
2019-01-21T03:21:05.192Z,42.77
2019-01-21T03:24:32.876Z,43.63
2019-01-21T03:27:40.034Z,42.07
2019-01-21T03:30:31.496Z,41.60
2019-01-21T03:33:37.740Z,44.03
2019-01-21T03:36:27.210Z,45.93
2019-01-21T03:40:03.602Z,47.50
2019-01-21T03:43:18.817Z,41.47
2019-01-21T03:46:10.757Z,45.70
2019-01-21T03:49:10.723Z,43.70
2019-01-21T03:52:16.759Z,46.70
2019-01-21T03:54:51.971Z,49.00
2019-01-21T03:57:41.584Z,50.43
2019-01-21T04:00:40.846Z,44.63
2019-01-21T04:03:55.207Z,45.20
2019-01-21T04:06:34.240Z,44.00
2019-01-21T04:09:28.471Z,43.37
2019-01-21T04:12:55.593Z,39.93
2019-01-21T04:16:10.783Z,41.27
2019-01-21T04:19:20.146Z,42.03
2019-01-21T04:22:02.436Z,42.63
2019-01-21T04:25:14.654Z,42.73
2019-01-21T04:28:22.171Z,37.73
2019-01-21T04:32:01.788Z,44.20
2019-01-21T04:35:15.852Z,41.67
2019-01-21T04:38:46.269Z,48.53
2019-01-21T04:41:30.648Z,49.27
2019-01-21T04:44:52.663Z,53.47
2019-01-21T04:47:51.321Z,44.90
2019-01-21T04:51:06.585Z,42.87
2019-01-21T04:54:31.346Z,46.47
2019-01-21T04:57:29.625Z,39.10
2019-01-21T05:00:21.254Z,41.60
2019-01-21T05:03:22.074Z,45.03
2019-01-21T05:06:46.553Z,46.57
2019-01-21T05:10:08.187Z,42.60
2019-01-21T05:13:12.711Z,42.87
2019-01-21T05:16:08.420Z,41.30
2019-01-21T05:19:11.308Z,32.57
2019-01-21T05:22:09.549Z,36.37
2019-01-21T05:25:02.061Z,38.33
2019-01-21T05:28:10.715Z,36.53
2019-01-21T05:31:19.810Z,33.23
2019-01-21T05:34:39.978Z,35.87
2019-01-21T05:37:39.966Z,37.60
2019-01-21T05:40:42.924Z,30.97
2019-01-21T05:43:44.444Z,34.97
2019-01-21T05:46:46.118Z,33.93
2019-01-21T05:49:57.625Z,31.93
2019-01-21T05:53:18.157Z,31.10
2019-01-21T05:56:25.423Z,27.27
2019-01-21T05:59:39.204Z,30.17
2019-01-21T06:02:44.288Z,31.63
2019-01-21T06:05:30.013Z,32.47
2019-01-21T06:08:50.855Z,36.53
2019-01-21T06:12:03.221Z,37.60
2019-01-21T06:15:15.603Z,41.03
2019-01-21T06:18:14.434Z,54.67
2019-01-21T06:21:35.555Z,64.37
2019-01-21T06:24:29.113Z,56.50
2019-01-21T06:27:38.394Z,60.73
2019-01-21T06:30:42.346Z,48.43
2019-01-21T06:33:53.301Z,46.97
2019-01-21T06:36:30.640Z,46.50
2019-01-21T06:39:51.598Z,39.20
2019-01-21T06:43:21.977Z,37.63
2019-01-21T06:46:55.237Z,35.17
2019-01-21T06:49:49.405Z,36.17
2019-01-21T06:52:58.056Z,32.47
2019-01-21T06:56:02.389Z,33.10
2019-01-21T06:59:10.085Z,28.57
2019-01-21T07:01:59.855Z,28.10
2019-01-21T07:04:57.300Z,27.13
2019-01-21T07:07:51.154Z,18.33
2019-01-21T07:11:12.381Z,24.10
2019-01-21T07:14:05.411Z,25.63
2019-01-21T07:17:27.960Z,24.47
2019-01-21T07:20:33.135Z,24.80
2019-01-21T07:23:23.835Z,23.23
2019-01-21T07:26:47.347Z,24.93
2019-01-21T07:29:58.006Z,24.13
2019-01-21T07:32:59.998Z,26.13
2019-01-21T07:36:06.905Z,24.90
2019-01-21T07:39:01.047Z,24.40
2019-01-21T07:42:22.835Z,25.83
2019-01-21T07:45:27.224Z,18.57
2019-01-21T07:48:37.232Z,20.20
2019-01-21T07:51:55.357Z,20.00
2019-01-21T07:55:07.448Z,15.90
2019-01-21T07:58:22.628Z,22.63
2019-01-21T08:01:14.530Z,22.40
2019-01-21T08:04:41.858Z,22.40
2019-01-21T08:07:33.144Z,23.57
2019-01-21T08:10:46.609Z,21.97
2019-01-21T08:14:04.504Z,21.97
2019-01-21T08:17:01.849Z,22.63
2019-01-21T08:19:53.769Z,26.40
2019-01-21T08:22:55.673Z,21.07
2019-01-21T08:26:04.795Z,20.87
2019-01-21T08:29:13.709Z,21.60
2019-01-21T08:32:30.651Z,19.90
2019-01-21T08:35:30.467Z,18.20
2019-01-21T08:38:25.417Z,16.57
2019-01-21T08:41:40.984Z,17.63
2019-01-21T08:45:02.735Z,18.73
2019-01-21T08:48:07.957Z,20.03
2019-01-21T08:51:16.222Z,18.77
2019-01-21T08:54:17.154Z,22.40
2019-01-21T08:57:22.586Z,24.80
2019-01-21T09:00:23.037Z,28.52
2019-01-21T09:03:15.219Z,23.60
2019-01-21T09:06:14.177Z,22.00
2019-01-21T09:09:27.821Z,17.20
2019-01-21T09:12:21.947Z,19.90
2019-01-21T09:15:18.885Z,20.53
2019-01-21T09:18:13.656Z,18.73
2019-01-21T09:21:25.809Z,21.77
2019-01-21T09:24:44.050Z,18.23
2019-01-21T09:27:52.653Z,20.72
2019-01-21T09:30:55.359Z,16.77
2019-01-21T09:34:03.356Z,16.80
2019-01-21T09:37:01.470Z,18.53
2019-01-21T09:40:22.112Z,21.53
2019-01-21T09:43:42.600Z,22.60
2019-01-21T09:46:38.529Z,22.93
2019-01-21T09:49:04.975Z,19.13
2019-01-21T09:51:33.295Z,21.60
2019-01-21T09:54:04.481Z,21.80
2019-01-21T09:56:32.306Z,22.70
2019-01-21T09:59:00.100Z,25.37
2019-01-21T10:01:28.596Z,23.77
2019-01-21T10:03:56.888Z,21.40
2019-01-21T10:06:34.573Z,22.37
2019-01-21T10:09:39.785Z,18.20
2019-01-21T10:12:36.421Z,23.52
2019-01-21T10:15:25.223Z,21.67
2019-01-21T10:18:45.868Z,22.07
2019-01-21T10:21:41.528Z,18.60
2019-01-21T10:24:20.949Z,21.73
2019-01-21T10:27:45.208Z,19.97
2019-01-21T10:30:23.447Z,18.77
2019-01-21T10:33:35.609Z,19.43
2019-01-21T10:36:28.856Z,21.67
2019-01-21T10:39:43.240Z,22.07
2019-01-21T10:42:36.514Z,18.60
2019-01-21T10:45:23.190Z,32.00
2019-01-21T10:48:22.773Z,27.70
2019-01-21T10:51:13.775Z,37.53
2019-01-21T10:54:24.683Z,21.50
2019-01-21T10:57:12.156Z,20.53
2019-01-21T11:00:42.753Z,17.47
2019-01-21T11:03:32.734Z,13.30
2019-01-21T11:06:38.009Z,19.53
2019-01-21T11:09:39.481Z,20.43
2019-01-21T11:12:57.402Z,18.03
2019-01-21T11:15:30.357Z,18.53
2019-01-21T11:18:06.613Z,21.37
2019-01-21T11:21:06.792Z,18.17
2019-01-21T11:23:55.987Z,19.17
2019-01-21T11:26:41.958Z,24.87
2019-01-21T11:30:05.348Z,23.23
2019-01-21T11:33:16.372Z,17.60
2019-01-21T11:36:28.583Z,18.33
2019-01-21T11:39:36.071Z,16.30
2019-01-21T11:42:36.210Z,16.60
2019-01-21T11:45:48.704Z,15.70
2019-01-21T11:49:02.456Z,16.30
2019-01-21T11:51:55.995Z,14.47
2019-01-21T11:55:14.744Z,14.80
2019-01-21T11:58:14.140Z,19.47
2019-01-21T12:01:23.981Z,19.87
2019-01-21T12:04:16.268Z,19.00
2019-01-21T12:07:09.424Z,29.17
2019-01-21T12:10:24.358Z,19.50
2019-01-21T12:13:15.320Z,18.93
2019-01-21T12:16:19.906Z,16.60
2019-01-21T12:19:11.214Z,16.77
2019-01-21T12:22:29.064Z,19.20
2019-01-21T12:25:15.920Z,18.70
2019-01-21T12:28:12.071Z,18.80
2019-01-21T12:30:54.515Z,23.37
2019-01-21T12:33:58.680Z,18.37
2019-01-21T12:36:54.898Z,14.30
2019-01-21T12:40:00.086Z,20.90
2019-01-21T12:42:43.975Z,19.70
2019-01-21T12:45:41.710Z,18.83
2019-01-21T12:48:59.136Z,23.27
2019-01-21T12:52:08.009Z,18.00
2019-01-21T12:55:25.422Z,21.07
2019-01-21T12:58:40.513Z,21.67
2019-01-21T13:02:04.041Z,19.70
2019-01-21T13:05:12.654Z,20.13
2019-01-21T13:08:22.552Z,21.90
2019-01-21T13:11:10.566Z,21.80
2019-01-21T13:14:22.824Z,22.20
2019-01-21T13:17:45.916Z,19.97
2019-01-21T13:20:42.465Z,20.67
2019-01-21T13:23:37.262Z,20.80
2019-01-21T13:26:41.036Z,22.30
2019-01-21T13:29:34.941Z,21.50
2019-01-21T13:32:31.323Z,21.27
2019-01-21T13:35:24.277Z,20.90
2019-01-21T13:38:29.425Z,22.83
2019-01-21T13:41:47.795Z,23.27
2019-01-21T13:44:35.734Z,22.20
2019-01-21T13:47:44.161Z,24.57
2019-01-21T13:50:37.279Z,20.50
2019-01-21T13:53:55.235Z,21.87
2019-01-21T13:56:56.854Z,24.47
2019-01-21T14:00:14.732Z,23.87
2019-01-21T14:03:03.368Z,25.83
2019-01-21T14:06:02.483Z,27.70
2019-01-21T14:09:23.415Z,32.03
2019-01-21T14:12:19.983Z,25.90
2019-01-21T14:15:27.714Z,24.77
2019-01-21T14:18:32.497Z,28.70
2019-01-21T14:21:24.518Z,24.47
2019-01-21T14:24:17.547Z,28.00
2019-01-21T14:27:02.237Z,25.20
2019-01-21T14:29:44.806Z,24.17
2019-01-21T14:32:52.987Z,26.77
2019-01-21T14:35:36.519Z,26.33
2019-01-21T14:38:47.196Z,24.73
2019-01-21T14:41:40.368Z,24.17
2019-01-21T14:44:50.904Z,25.57
2019-01-21T14:48:09.174Z,25.30
2019-01-21T14:51:04.333Z,25.37
2019-01-21T14:54:10.802Z,24.97
2019-01-21T14:56:50.979Z,26.73
2019-01-21T14:59:46.431Z,25.33
2019-01-21T15:03:01.615Z,27.57
2019-01-21T15:06:29.136Z,27.20
2019-01-21T15:09:05.964Z,28.23
2019-01-21T15:12:33.300Z,29.27
2019-01-21T15:15:27.571Z,27.47
2019-01-21T15:18:48.447Z,30.17
2019-01-21T15:21:48.805Z,32.10
2019-01-21T15:24:42.924Z,27.00
2019-01-21T15:27:49.811Z,30.17
2019-01-21T15:30:43.382Z,31.03
2019-01-21T15:33:35.343Z,30.87
2019-01-21T15:36:36.573Z,30.73
2019-01-21T15:39:37.673Z,29.67
2019-01-21T15:42:42.365Z,31.07
2019-01-21T15:45:50.759Z,31.50
2019-01-21T15:48:31.372Z,36.23
2019-01-21T15:51:31.912Z,35.60
2019-01-21T15:54:16.215Z,37.00
2019-01-21T15:57:30.092Z,37.30
2019-01-21T16:00:45.094Z,35.73
2019-01-21T16:03:43.240Z,35.73
2019-01-21T16:06:41.948Z,34.70
2019-01-21T16:09:46.805Z,33.47
2019-01-21T16:12:45.963Z,35.30
2019-01-21T16:15:38.321Z,33.23
2019-01-21T16:18:25.958Z,33.30
2019-01-21T16:21:37.296Z,32.87
2019-01-21T16:24:26.116Z,30.53
2019-01-21T16:27:03.577Z,29.50
2019-01-21T16:29:39.251Z,31.93
2019-01-21T16:32:40.700Z,32.90
2019-01-21T16:35:34.332Z,36.20
2019-01-21T16:38:23.067Z,34.63
2019-01-21T16:41:24.862Z,32.10
2019-01-21T16:43:52.934Z,32.80
2019-01-21T16:46:20.719Z,33.60
2019-01-21T16:48:48.210Z,39.77
2019-01-21T16:51:20.153Z,41.27
2019-01-21T16:53:45.428Z,38.13
2019-01-21T16:56:13.132Z,38.13
2019-01-21T16:58:40.943Z,34.13
2019-01-21T17:01:08.670Z,39.77
2019-01-21T17:03:36.324Z,34.47
2019-01-21T17:06:04.327Z,37.03
2019-01-21T17:08:31.877Z,39.63
2019-01-21T17:10:59.317Z,37.90
2019-01-21T17:13:26.925Z,40.47
2019-01-21T17:15:54.738Z,38.57
2019-01-21T17:18:22.474Z,37.33
2019-01-21T17:20:50.322Z,39.67
2019-01-21T17:23:18.428Z,39.10
2019-01-21T17:25:46.165Z,37.17
2019-01-21T17:28:14.084Z,36.87
2019-01-21T17:30:41.765Z,38.33
2019-01-21T17:33:09.521Z,40.07
2019-01-21T17:35:37.297Z,39.37
2019-01-21T17:38:05.024Z,41.00
2019-01-21T17:40:32.858Z,37.87
2019-01-21T17:43:00.599Z,42.00
2019-01-21T17:45:28.163Z,43.20
2019-01-21T17:47:55.904Z,45.40
2019-01-21T17:50:23.602Z,40.27
2019-01-21T17:52:51.223Z,39.67
2019-01-21T17:55:18.953Z,40.33
2019-01-21T17:57:46.678Z,44.63
2019-01-21T18:00:19.939Z,39.77
2019-01-21T18:02:47.839Z,36.17
2019-01-21T18:05:16.520Z,34.17
2019-01-21T18:07:44.400Z,38.37
2019-01-21T18:10:13.770Z,31.77
2019-01-21T18:12:42.144Z,31.07
2019-01-21T18:15:10.740Z,36.93
2019-01-21T18:17:38.459Z,35.17
2019-01-21T18:20:13.323Z,35.13
2019-01-21T18:22:40.972Z,31.80
2019-01-21T18:25:09.717Z,31.93
2019-01-21T18:27:37.243Z,33.87
2019-01-21T18:30:08.246Z,32.87
2019-01-21T18:32:35.902Z,28.67
2019-01-21T18:35:04.589Z,29.83
2019-01-21T18:37:32.079Z,36.83
2019-01-21T18:39:59.888Z,31.47
2019-01-21T18:42:27.717Z,31.63
2019-01-21T18:44:55.663Z,30.90
2019-01-21T18:47:23.330Z,29.23
2019-01-21T18:49:51.067Z,34.67
2019-01-21T18:52:18.858Z,34.30
2019-01-21T18:54:46.451Z,33.70
2019-01-21T18:57:15.281Z,36.30
2019-01-21T18:59:43.134Z,36.93
2019-01-21T19:02:10.552Z,36.23
2019-01-21T19:04:38.259Z,37.03
2019-01-21T19:07:05.959Z,37.17
2019-01-21T19:09:33.610Z,36.13
2019-01-21T19:12:01.169Z,36.30
2019-01-21T19:14:29.101Z,33.10
2019-01-21T19:16:56.625Z,33.53
2019-01-21T19:19:24.426Z,32.70
2019-01-21T19:21:53.703Z,34.47
2019-01-21T19:24:21.495Z,30.37
2019-01-21T19:26:49.529Z,32.37
2019-01-21T19:29:17.358Z,33.93
2019-01-21T19:31:45.050Z,33.17
2019-01-21T19:34:12.745Z,31.73
2019-01-21T19:36:40.389Z,33.07
2019-01-21T19:39:08.965Z,37.17
2019-01-21T19:41:36.725Z,32.63
2019-01-21T19:44:04.800Z,37.47
2019-01-21T19:46:32.465Z,39.43
2019-01-21T19:49:00.282Z,38.57
2019-01-21T19:51:28.162Z,34.53
2019-01-21T19:53:55.744Z,32.20
2019-01-21T19:56:23.646Z,34.40
2019-01-21T19:58:51.642Z,39.53
2019-01-21T20:01:19.444Z,34.37
2019-01-21T20:03:47.071Z,29.90
2019-01-21T20:06:15.326Z,26.77
2019-01-21T20:09:00.588Z,28.00
2019-01-21T20:11:34.812Z,29.27
2019-01-21T20:14:06.103Z,30.13
2019-01-21T20:16:38.275Z,37.75
2019-01-21T20:19:06.406Z,33.00
2019-01-21T20:21:37.380Z,32.13
2019-01-21T20:24:05.892Z,31.13
2019-01-21T20:26:33.474Z,32.00
2019-01-21T20:29:00.954Z,31.60
2019-01-21T20:31:28.598Z,32.57
2019-01-21T20:33:56.120Z,33.10
2019-01-21T20:36:23.782Z,33.50
2019-01-21T20:38:51.393Z,35.23
2019-01-21T20:41:18.967Z,37.63
2019-01-21T20:43:46.612Z,38.30
2019-01-21T20:46:14.406Z,38.37
2019-01-21T20:48:42.163Z,39.57
2019-01-21T20:51:09.985Z,39.53
2019-01-21T20:53:37.508Z,40.07
2019-01-21T20:56:05.168Z,37.43
2019-01-21T20:58:32.835Z,38.10
2019-01-21T21:01:00.614Z,35.73
2019-01-21T21:03:28.132Z,34.50
2019-01-21T21:05:55.692Z,34.63
2019-01-21T21:08:23.256Z,32.87
2019-01-21T21:10:50.601Z,29.63
2019-01-21T21:13:18.056Z,38.30
2019-01-21T21:15:45.603Z,31.70
2019-01-21T21:18:13.006Z,27.53
2019-01-21T21:20:53.550Z,31.03
2019-01-21T21:23:20.987Z,31.47
2019-01-21T21:25:48.482Z,32.83
2019-01-21T21:28:15.881Z,32.13
2019-01-21T21:30:43.393Z,33.20
2019-01-21T21:33:11.545Z,34.87
2019-01-21T21:35:39.086Z,26.73
2019-01-21T21:38:06.515Z,33.73
2019-01-21T21:40:34.003Z,34.03
2019-01-21T21:43:01.427Z,32.50
2019-01-21T21:45:28.947Z,33.90
2019-01-21T21:48:00.832Z,34.57
2019-01-21T21:50:28.403Z,35.03
2019-01-21T21:52:55.855Z,33.90
2019-01-21T21:55:23.414Z,36.63
2019-01-21T21:57:51.060Z,36.70
2019-01-21T22:00:21.195Z,35.63
2019-01-21T22:02:48.814Z,34.43
2019-01-21T22:05:17.300Z,35.33
2019-01-21T22:07:45.105Z,34.73
2019-01-21T22:10:14.319Z,35.60
2019-01-21T22:12:41.891Z,36.37
2019-01-21T22:15:12.133Z,36.23
2019-01-21T22:17:39.765Z,34.50
2019-01-21T22:20:10.016Z,36.50
2019-01-21T22:22:37.434Z,38.40
2019-01-21T22:25:05.554Z,37.27
2019-01-21T22:27:33.535Z,35.53
2019-01-21T22:30:00.974Z,35.03
2019-01-21T22:32:28.464Z,35.63
2019-01-21T22:34:56.045Z,36.33
2019-01-21T22:37:23.566Z,36.43
2019-01-21T22:39:51.312Z,37.80
2019-01-21T22:42:18.997Z,38.07
2019-01-21T22:44:46.488Z,32.17
2019-01-21T22:47:13.984Z,33.00
2019-01-21T22:49:41.620Z,30.57
2019-01-21T22:52:09.082Z,31.53
2019-01-21T22:54:36.787Z,34.30
2019-01-21T22:57:04.757Z,31.37
2019-01-21T22:59:32.403Z,28.43
2019-01-21T23:02:00.124Z,27.60
2019-01-21T23:04:27.911Z,26.83
2019-01-21T23:06:55.390Z,25.90
2019-01-21T23:09:22.962Z,26.87
2019-01-21T23:11:50.522Z,23.90
2019-01-21T23:14:18.148Z,25.60
2019-01-21T23:16:45.638Z,25.47
2019-01-21T23:19:13.115Z,21.30
2019-01-21T23:21:40.612Z,25.07
2019-01-21T23:24:08.109Z,23.00
2019-01-21T23:26:35.603Z,21.20
2019-01-21T23:29:03.421Z,23.43
2019-01-21T23:31:30.862Z,20.23
2019-01-21T23:33:58.421Z,21.67
2019-01-21T23:36:25.869Z,22.33
2019-01-21T23:38:53.317Z,21.63
2019-01-21T23:41:20.801Z,20.73
2019-01-21T23:43:48.281Z,23.17
2019-01-21T23:46:16.044Z,22.00
2019-01-21T23:48:43.539Z,21.57
2019-01-21T23:51:11.002Z,23.70
2019-01-21T23:53:38.513Z,24.27
2019-01-21T23:56:06.295Z,19.37
2019-01-21T23:58:33.837Z,20.17
